Tropical Cyclones
[Index]
Main Index Home Page Stock Weather Photos Extreme Storms Discussion Storm News and Storm Chasing Reports Tropical Cyclones / Hurricanes / Typhoons Weather Data and Links Wild Fires / Bushfires Weather Observation Techniques Weather Picture Catalogue Tornado Pictures and Reports Stock Video Footage and DVDs for sale
Season 1995-1996 Tropical Cyclone ETHEL Track Map
Season 1995-1996 Summaries: [BoM-AU] [JTWC-AU] [JTWC-SIO] [JTWC-SPAC] [JTWC-SH]
<<- Previous TC | BoM 1995-1996 Season | Next TC ->>

click for intensity scale information  Lat/long Grid: Show Hide

 Date Labels: Show Hide

Bureau of Meteorology Tropical Cyclone Data

Name: ETHEL
Number: 789 / 199596_13

08 Mar 1996 06:00 UTC to 13 Mar 1996 06:00 UTC

    date/time    lat    long    hPa   cat  kts
1996-03-08 06   15.1   139.0    998         41          
1996-03-08 12   14.7   140.1    995    1    41          
1996-03-08 18   13.8   140.1    993    1    47          
1996-03-09 00   13.2   140.3    990    1    47          
1996-03-09 06   13.1   140.8    987    1    47          
1996-03-09 12   12.8   141.4    985    2    47          
1996-03-09 18   12.4   141.8    980    2                
1996-03-10 00   12.2   143.0    993    1    41          
1996-03-10 06   12.6   144.0    990    1    47          
1996-03-10 12   13.0   144.7    990    1    47          
1996-03-10 18   13.3   145.3    990    1    47          
1996-03-11 00   13.3   145.6    990    1    47          
1996-03-11 06   13.9   146.0    990    1    47          
1996-03-11 12   14.4   145.4    988    1    49          
1996-03-11 18   14.3   144.5    982    2    54          
1996-03-12 00   14.3   143.5    985    2    41          
1996-03-12 06   14.8   142.4    995    1    35          
1996-03-12 12   15.3   141.0    992    1    41          
1996-03-12 18   15.5   139.5    988    1    41          
1996-03-13 00   16.3   137.8    985    2    41          
1996-03-13 06   17.2   136.3    995    1    35          
Winds are 10-min average.

Tropical cyclone tracks developed by Michael Bath using data from the Bureau of Meteorology and Google Maps.


[Australian Severe Weather index] [Copyright Notice] [Email Contacts] [Search This Site] [Privacy Policy]
Document: tropical_cyclone_ethel.htm Updated: 30 May 2013